Time;durP1;ratioP1;P1;durP2;ratioP2;P2;SDS_P1;SDS_P2;PMS_P1;PMS_P2;Temp;Humidity;BMP_temperature;BMP_pressure;BME280_temperature;BME280_humidity;BME280_pressure;Samples;Min_cycle;Max_cycle;Signal;HPM_P1;HPM_P2
2022/04/25 00:00:56;;;;;;;3.13;2.80;;;9.60;99.90;;;;;;4998989;28;20193;-86
2022/04/25 00:03:22;;;;;;;3.03;2.77;;;9.60;99.90;;;;;;4998844;28;20233;-86
2022/04/25 00:05:48;;;;;;;3.20;2.90;;;9.60;99.90;;;;;;5015355;28;20179;-86
2022/04/25 00:08:14;;;;;;;2.97;2.70;;;9.60;99.90;;;;;;5015104;28;20265;-85
2022/04/25 00:10:40;;;;;;;2.87;2.67;;;9.60;99.90;;;;;;5015091;28;20209;-86
2022/04/25 00:13:06;;;;;;;3.30;3.00;;;9.60;99.90;;;;;;4998988;28;20175;-86
2022/04/25 00:15:31;;;;;;;3.80;3.40;;;9.60;99.90;;;;;;5014832;28;20203;-86
2022/04/25 00:17:57;;;;;;;3.37;3.07;;;9.60;99.90;;;;;;5014850;28;20233;-86
2022/04/25 00:20:23;;;;;;;3.93;3.10;;;9.60;99.90;;;;;;5031143;28;20296;-86
2022/04/25 00:22:49;;;;;;;4.23;3.43;;;9.60;99.90;;;;;;5014759;28;20206;-86
2022/04/25 00:25:15;;;;;;;3.73;3.37;;;9.60;99.90;;;;;;5032300;28;20217;-86
2022/04/25 00:27:41;;;;;;;4.00;3.60;;;9.50;99.90;;;;;;5014766;28;20182;-85
2022/04/25 00:30:08;;;;;;;3.50;3.20;;;9.50;99.90;;;;;;5014414;28;20179;-86
2022/04/25 00:32:42;;;;;;;4.30;3.70;;;9.50;99.90;;;;;;5014809;28;20179;-86
2022/04/25 00:35:08;;;;;;;4.17;3.67;;;9.50;99.90;;;;;;4998437;28;20198;-86
2022/04/25 00:37:34;;;;;;;4.00;3.50;;;9.50;99.90;;;;;;4999613;28;20278;-86
2022/04/25 00:40:00;;;;;;;3.83;3.50;;;9.50;99.90;;;;;;4979019;28;20266;-86
2022/04/25 00:42:26;;;;;;;4.70;3.63;;;9.40;99.90;;;;;;4995440;28;20209;-86
2022/04/25 00:44:52;;;;;;;3.60;3.30;;;9.40;99.90;;;;;;4995034;28;20226;-86
2022/04/25 00:47:18;;;;;;;3.83;3.43;;;9.40;99.90;;;;;;4977679;28;20210;-85
2022/04/25 00:49:44;;;;;;;4.90;4.00;;;9.40;99.90;;;;;;4980503;28;20183;-86
2022/04/25 00:52:10;;;;;;;3.67;3.37;;;9.40;99.90;;;;;;4982624;28;20171;-86
2022/04/25 00:54:36;;;;;;;3.97;3.57;;;9.40;99.90;;;;;;4982446;28;20199;-86
2022/04/25 00:57:02;;;;;;;3.67;3.37;;;9.30;99.90;;;;;;5015098;28;20187;-86
2022/04/25 00:59:29;;;;;;;4.40;3.40;;;9.30;99.90;;;;;;4998455;28;20175;-86
2022/04/25 01:01:55;;;;;;;3.50;3.17;;;9.20;99.90;;;;;;4982538;28;20175;-86
2022/04/25 01:04:21;;;;;;;4.10;3.70;;;9.20;99.90;;;;;;4998372;28;20211;-86
2022/04/25 01:06:48;;;;;;;4.03;3.63;;;9.20;99.90;;;;;;4982398;28;20211;-85
2022/04/25 01:09:14;;;;;;;4.27;3.70;;;9.20;99.90;;;;;;4998382;28;20175;-86
2022/04/25 01:11:40;;;;;;;4.27;3.87;;;9.20;99.90;;;;;;5014049;28;20593;-86
2022/04/25 01:14:17;;;;;;;4.80;3.93;;;9.20;99.90;;;;;;5014559;28;20249;-85
2022/04/25 01:16:43;;;;;;;4.57;4.00;;;9.10;99.90;;;;;;4998528;28;20248;-86
2022/04/25 01:19:10;;;;;;;6.20;4.40;;;9.10;99.90;;;;;;4998091;28;20175;-86
2022/04/25 01:21:43;;;;;;;6.40;4.40;;;9.20;99.90;;;;;;4998135;28;20292;-86
2022/04/25 01:29:40;;;;;;;5.87;3.90;;;9.20;99.90;;;;;;5014366;28;20227;-85
2022/04/25 01:32:07;;;;;;;5.60;5.00;;;9.20;99.90;;;;;;4998103;28;20188;-86
2022/04/25 01:34:33;;;;;;;6.30;4.97;;;9.20;99.90;;;;;;4997772;28;20227;-86
2022/04/25 01:37:01;;;;;;;4.67;4.17;;;9.30;99.90;;;;;;5017536;28;20225;-86
2022/04/25 01:39:27;;;;;;;4.30;3.90;;;9.30;99.90;;;;;;5017228;28;20186;-85
2022/04/25 01:41:53;;;;;;;5.63;4.57;;;9.30;99.90;;;;;;5017162;28;20654;-85
2022/04/25 01:44:19;;;;;;;6.07;4.90;;;9.30;99.90;;;;;;5017659;28;20222;-85
2022/04/25 01:46:44;;;;;;;5.37;4.87;;;9.30;99.90;;;;;;5017694;28;20213;-85
2022/04/25 01:49:10;;;;;;;6.57;4.93;;;9.30;99.90;;;;;;5017131;28;20178;-86
2022/04/25 01:51:44;;;;;;;4.90;4.40;;;9.30;99.90;;;;;;5016851;28;20182;-86
2022/04/25 01:54:13;;;;;;;4.50;4.10;;;9.30;99.90;;;;;;5017344;28;20245;-86
2022/04/25 01:56:39;;;;;;;4.73;4.10;;;9.30;99.90;;;;;;5017219;28;20189;-86
2022/04/25 01:59:05;;;;;;;4.77;4.33;;;9.30;99.90;;;;;;5017039;28;20186;-86
2022/04/25 02:01:31;;;;;;;5.50;4.23;;;9.30;99.90;;;;;;5016150;28;20191;-86
2022/04/25 02:03:57;;;;;;;5.20;4.60;;;9.20;99.90;;;;;;5034754;28;20652;-86
2022/04/25 02:06:22;;;;;;;4.63;4.23;;;9.30;99.90;;;;;;5034956;28;20202;-86
2022/04/25 02:08:48;;;;;;;4.97;4.47;;;9.30;99.90;;;;;;5017272;28;20179;-86
2022/04/25 02:11:20;;;;;;;5.47;4.03;;;9.30;99.90;;;;;;5017045;28;20190;-86
2022/04/25 02:13:51;;;;;;;5.40;4.67;;;9.30;99.90;;;;;;5016851;28;20203;-86
2022/04/25 02:16:22;;;;;;;5.67;5.07;;;9.30;99.90;;;;;;5017243;28;20178;-86
2022/04/25 02:18:52;;;;;;;5.50;4.90;;;9.30;99.90;;;;;;5017121;28;20190;-86
2022/04/25 02:21:19;;;;;;;5.47;4.47;;;9.30;99.90;;;;;;5016741;28;20213;-86
2022/04/25 02:23:45;;;;;;;5.37;4.33;;;9.30;99.90;;;;;;5016612;28;20241;-86
2022/04/25 02:26:11;;;;;;;5.73;5.07;;;9.30;99.90;;;;;;5016666;28;20182;-86
2022/04/25 02:28:39;;;;;;;5.57;4.97;;;9.30;99.90;;;;;;5016515;28;20236;-85
2022/04/25 02:31:06;;;;;;;5.60;4.20;;;9.30;99.90;;;;;;5016769;28;20246;-86
2022/04/25 02:33:33;;;;;;;5.03;4.53;;;9.30;99.90;;;;;;5016389;28;20186;-86
2022/04/25 02:36:26;;;;;;;4.87;4.43;;;9.30;99.90;;;;;;4997836;28;20214;-85
2022/04/25 02:38:52;;;;;;;5.30;4.73;;;9.30;99.90;;;;;;5013020;28;20270;-86
2022/04/25 02:41:18;;;;;;;6.20;5.30;;;9.30;99.90;;;;;;4980586;28;20273;-85
2022/04/25 02:43:53;;;;;;;5.60;4.93;;;9.30;99.90;;;;;;4980239;28;20207;-86
2022/04/25 02:46:20;;;;;;;5.60;5.00;;;9.30;99.90;;;;;;4980684;28;20171;-86
2022/04/25 02:48:47;;;;;;;6.20;5.27;;;9.30;99.90;;;;;;4980470;28;20262;-86
2022/04/25 02:51:14;;;;;;;5.90;5.17;;;9.30;99.90;;;;;;4980527;28;20226;-86
2022/04/25 02:53:40;;;;;;;6.77;5.83;;;9.30;99.90;;;;;;4996175;28;20706;-86
2022/04/25 02:56:07;;;;;;;5.30;4.80;;;9.30;99.90;;;;;;4983778;28;20229;-85
2022/04/25 02:58:35;;;;;;;6.40;5.77;;;9.20;99.90;;;;;;5019353;28;20215;-86
2022/04/25 03:01:04;;;;;;;6.67;5.47;;;9.30;99.90;;;;;;5019268;28;20272;-86
2022/04/25 03:03:35;;;;;;;6.13;5.40;;;9.30;99.90;;;;;;5019109;28;20205;-86
2022/04/25 03:06:04;;;;;;;6.70;5.57;;;9.30;99.90;;;;;;5019209;28;20236;-86
2022/04/25 03:08:31;;;;;;;8.60;5.63;;;9.30;99.90;;;;;;5019271;28;20182;-86
2022/04/25 03:11:36;;;;;;;5.87;5.27;;;9.30;99.90;;;;;;5019386;28;20178;-86
2022/04/25 03:14:02;;;;;;;6.33;5.03;;;9.20;99.90;;;;;;5019446;28;20209;-86
2022/04/25 03:16:29;;;;;;;5.70;5.10;;;9.20;99.90;;;;;;5018878;28;20182;-86
2022/04/25 03:18:55;;;;;;;5.80;5.20;;;9.20;99.90;;;;;;5053504;28;20174;-86
2022/04/25 03:21:21;;;;;;;5.87;5.23;;;9.10;99.90;;;;;;5019323;28;20643;-86
2022/04/25 03:23:46;;;;;;;6.43;5.47;;;9.10;99.90;;;;;;5018771;28;20268;-86
2022/04/25 03:26:12;;;;;;;6.77;5.70;;;9.10;99.90;;;;;;5018973;28;20181;-86
2022/04/25 03:28:38;;;;;;;6.70;6.00;;;9.10;99.90;;;;;;5019313;28;20174;-86
2022/04/25 03:31:24;;;;;;;7.13;6.33;;;9.10;99.90;;;;;;5018304;28;20265;-86
2022/04/25 03:33:50;;;;;;;5.90;5.30;;;9.00;99.90;;;;;;5018915;28;20229;-86
2022/04/25 03:36:16;;;;;;;7.30;5.73;;;9.00;99.90;;;;;;5019384;28;20209;-87
2022/04/25 03:38:42;;;;;;;6.90;6.10;;;9.00;99.90;;;;;;5035116;28;20272;-86
2022/04/25 03:41:08;;;;;;;6.93;5.77;;;8.90;99.90;;;;;;5018581;28;20197;-86
2022/04/25 03:43:34;;;;;;;6.93;5.97;;;8.90;99.90;;;;;;5018635;28;20339;-86
2022/04/25 03:46:00;;;;;;;6.30;5.67;;;8.90;99.90;;;;;;5018636;28;20288;-86
2022/04/25 03:51:53;;;;;;;8.53;7.57;;;8.80;99.90;;;;;;5035293;28;20182;-86
2022/04/25 03:57:10;;;;;;;7.90;6.97;;;8.80;99.90;;;;;;5018650;28;20201;-86
2022/04/25 03:57:12;;;;;;;8.50;7.47;;;8.70;99.90;;;;;;5035051;28;20170;-86
2022/04/25 03:59:39;;;;;;;8.30;7.40;;;8.80;99.90;;;;;;5018303;28;20627;-86
2022/04/25 04:02:06;;;;;;;10.27;7.97;;;8.80;99.90;;;;;;5017818;28;20184;-80
2022/04/25 04:04:31;;;;;;;10.40;7.60;;;8.80;99.90;;;;;;5035150;28;20239;-86
2022/04/25 04:06:58;;;;;;;8.40;7.20;;;8.80;99.90;;;;;;5009068;28;20548;-85
2022/04/25 04:12:09;;;;;;;10.27;7.00;;;8.80;99.90;;;;;;5015829;28;20167;-87
2022/04/25 04:14:35;;;;;;;10.77;7.97;;;8.80;99.90;;;;;;5015054;28;20205;-87
2022/04/25 04:17:01;;;;;;;8.43;7.23;;;8.90;99.90;;;;;;4999110;28;20505;-87
2022/04/25 04:19:28;;;;;;;9.40;7.13;;;8.90;99.90;;;;;;5015213;28;20182;-87
2022/04/25 04:21:53;;;;;;;8.93;7.20;;;8.90;99.90;;;;;;5015354;28;20281;-86
2022/04/25 04:24:19;;;;;;;8.60;7.47;;;8.90;99.90;;;;;;5016515;28;20278;-87
2022/04/25 04:26:45;;;;;;;7.57;6.73;;;8.90;99.90;;;;;;5019520;28;20258;-87
2022/04/25 04:29:11;;;;;;;8.13;6.60;;;8.90;99.90;;;;;;5019471;28;20262;-87
2022/04/25 04:31:37;;;;;;;8.83;7.77;;;8.90;99.90;;;;;;5019210;28;20269;-87
2022/04/25 04:34:03;;;;;;;8.67;6.87;;;8.90;99.90;;;;;;5019663;28;20277;-87
2022/04/25 04:36:29;;;;;;;8.73;7.40;;;8.90;99.90;;;;;;5024621;28;20295;-84
2022/04/25 04:38:55;;;;;;;8.13;6.80;;;9.00;99.90;;;;;;5007373;28;20186;-84
2022/04/25 04:41:22;;;;;;;8.77;6.90;;;9.00;99.90;;;;;;5002883;28;20179;-84
2022/04/25 04:43:48;;;;;;;8.13;7.33;;;9.00;99.90;;;;;;5021510;28;20213;-84
2022/04/25 04:46:14;;;;;;;9.80;8.17;;;9.00;99.90;;;;;;5022637;28;20282;-84
2022/04/25 04:48:40;;;;;;;8.53;7.63;;;9.00;99.90;;;;;;5022763;28;20171;-87
2022/04/25 04:51:08;;;;;;;9.67;7.93;;;9.00;99.90;;;;;;5015843;28;20189;-86
2022/04/25 04:53:34;;;;;;;9.30;7.77;;;8.90;99.90;;;;;;5014909;28;20197;-86
2022/04/25 04:56:00;;;;;;;9.97;7.93;;;8.80;99.90;;;;;;5011082;28;20187;-87
2022/04/25 04:58:28;;;;;;;9.17;7.87;;;8.70;99.90;;;;;;4982895;28;20194;-87
2022/04/25 05:01:12;;;;;;;9.70;8.37;;;8.70;99.90;;;;;;4982397;28;20183;-86
2022/04/25 05:03:39;;;;;;;9.53;7.80;;;8.60;99.90;;;;;;4983405;28;20274;-87
2022/04/25 05:06:05;;;;;;;11.00;8.77;;;8.60;99.90;;;;;;4982997;28;20318;-86
2022/04/25 05:08:31;;;;;;;9.67;8.63;;;8.50;99.90;;;;;;4982940;28;20262;-86
2022/04/25 05:10:57;;;;;;;9.53;8.53;;;8.50;99.90;;;;;;4982784;28;20179;-87
2022/04/25 05:13:23;;;;;;;10.40;8.60;;;8.50;99.90;;;;;;4982706;28;20183;-87
2022/04/25 05:15:49;;;;;;;10.50;8.90;;;8.60;99.90;;;;;;4982209;28;20194;-87
2022/04/25 05:18:15;;;;;;;11.73;9.73;;;8.60;99.90;;;;;;4998138;28;20195;-86
2022/04/25 05:20:41;;;;;;;11.27;9.67;;;8.60;99.90;;;;;;4998820;28;20664;-86
2022/04/25 05:23:10;;;;;;;14.47;10.57;;;8.60;99.90;;;;;;4982493;28;20199;-86
2022/04/25 05:25:38;;;;;;;11.80;9.83;;;8.60;99.90;;;;;;4982732;28;20196;-87
2022/04/25 05:28:05;;;;;;;10.90;9.00;;;8.60;99.90;;;;;;4982471;28;20182;-87
2022/04/25 05:30:32;;;;;;;12.50;10.60;;;8.70;99.90;;;;;;4982935;28;20182;-87
2022/04/25 05:33:02;;;;;;;12.73;10.03;;;8.70;99.90;;;;;;4982753;28;20179;-87
2022/04/25 05:35:37;;;;;;;11.50;9.43;;;8.80;99.90;;;;;;4981379;28;20261;-88
2022/04/25 05:38:06;;;;;;;10.70;9.60;;;8.90;99.90;;;;;;5001458;28;20186;-85
2022/04/25 05:40:32;;;;;;;16.30;8.93;;;9.00;99.90;;;;;;5019717;28;20214;-87
2022/04/25 05:43:02;;;;;;;11.03;8.37;;;9.00;99.90;;;;;;5018309;28;20210;-87
2022/04/25 05:45:27;;;;;;;9.60;8.60;;;9.10;99.90;;;;;;5017329;28;20199;-87
2022/04/25 05:47:55;;;;;;;9.53;8.50;;;9.20;99.90;;;;;;5017895;28;20174;-87
2022/04/25 05:53:06;;;;;;;9.90;8.47;;;9.40;99.90;;;;;;5034018;28;20170;-87
2022/04/25 05:55:32;;;;;;;9.60;7.73;;;9.60;99.90;;;;;;5017252;28;20301;-87
2022/04/25 05:58:00;;;;;;;9.30;7.83;;;9.60;99.90;;;;;;5017280;28;20208;-87
2022/04/25 06:00:27;;;;;;;8.10;7.30;;;9.70;99.90;;;;;;5017388;28;20270;-87
2022/04/25 06:02:54;;;;;;;8.97;7.67;;;9.80;99.90;;;;;;5017048;28;20210;-87
2022/04/25 06:05:20;;;;;;;8.20;7.27;;;9.90;99.90;;;;;;5017364;28;20202;-84
2022/04/25 06:07:47;;;;;;;8.83;7.70;;;9.90;99.90;;;;;;5000221;28;20202;-85
2022/04/25 06:10:16;;;;;;;8.90;8.00;;;10.00;99.90;;;;;;4981087;28;20230;-85
2022/04/25 06:12:44;;;;;;;8.50;7.27;;;10.10;99.90;;;;;;4981325;28;20254;-85
2022/04/25 06:15:11;;;;;;;7.47;6.77;;;10.10;99.90;;;;;;4981464;28;20286;-85
2022/04/25 06:17:37;;;;;;;7.57;6.37;;;10.10;99.90;;;;;;4980753;28;20191;-85
2022/04/25 06:20:07;;;;;;;7.43;6.63;;;10.20;99.90;;;;;;4981479;28;20211;-85
2022/04/25 06:22:33;;;;;;;6.47;5.83;;;10.20;99.90;;;;;;4993850;28;20183;-85
2022/04/25 06:24:59;;;;;;;7.60;6.27;;;10.20;99.90;;;;;;4996245;28;20672;-85
2022/04/25 06:27:25;;;;;;;7.90;6.57;;;10.30;99.90;;;;;;4981335;28;20179;-85
2022/04/25 06:29:52;;;;;;;6.57;5.93;;;10.30;99.90;;;;;;4981190;28;20180;-86
2022/04/25 06:32:19;;;;;;;6.73;6.10;;;10.40;99.90;;;;;;4981499;28;20183;-86
2022/04/25 06:34:46;;;;;;;6.53;5.93;;;10.50;99.90;;;;;;4980789;28;20199;-86
2022/04/25 06:37:13;;;;;;;7.97;6.97;;;10.60;99.90;;;;;;4980633;28;20191;-86
2022/04/25 06:39:38;;;;;;;7.63;6.47;;;10.60;99.90;;;;;;4996795;28;20183;-86
2022/04/25 06:42:05;;;;;;;7.83;6.70;;;10.70;99.90;;;;;;4996742;28;20242;-86
2022/04/25 06:44:32;;;;;;;8.20;7.17;;;10.80;99.90;;;;;;5012917;28;20226;-86
2022/04/25 06:46:58;;;;;;;8.20;6.77;;;10.80;99.90;;;;;;4996165;28;20207;-86
2022/04/25 06:49:24;;;;;;;7.67;6.87;;;10.90;99.90;;;;;;4996822;28;20179;-86
2022/04/25 06:51:52;;;;;;;7.87;7.10;;;11.00;99.90;;;;;;4996954;28;20210;-86
2022/04/25 06:54:19;;;;;;;7.80;6.87;;;10.90;99.90;;;;;;5013106;28;20199;-86
2022/04/25 06:56:46;;;;;;;8.17;6.57;;;10.90;99.90;;;;;;4996668;28;20214;-85
2022/04/25 06:59:12;;;;;;;7.60;6.73;;;11.00;99.90;;;;;;4996271;28;20180;-86
2022/04/25 07:01:39;;;;;;;8.23;6.37;;;11.10;99.90;;;;;;5012716;28;20190;-86
2022/04/25 07:04:06;;;;;;;6.63;5.93;;;11.20;99.90;;;;;;4996200;28;20286;-86
2022/04/25 07:07:10;;;;;;;7.00;6.00;;;11.30;99.90;;;;;;4995674;28;20180;-86
2022/04/25 07:09:36;;;;;;;6.40;5.40;;;11.50;99.90;;;;;;5012730;28;20192;-86
2022/04/25 07:12:02;;;;;;;5.47;4.90;;;11.60;99.90;;;;;;4996574;28;20187;-86
2022/04/25 07:14:29;;;;;;;6.03;5.50;;;11.60;99.90;;;;;;4996459;28;20200;-86
2022/04/25 07:16:57;;;;;;;6.40;5.07;;;11.60;99.90;;;;;;4996334;28;20216;-86
2022/04/25 07:19:23;;;;;;;6.00;5.40;;;11.80;99.90;;;;;;4995911;28;20185;-86
2022/04/25 07:30:03;;;;;;;6.60;5.80;;;12.30;99.90;;;;;;5012179;28;20181;-86
2022/04/25 07:32:30;;;;;;;6.30;5.70;;;12.50;99.90;;;;;;4995852;28;20265;-86
2022/04/25 07:34:56;;;;;;;6.47;5.83;;;12.70;99.90;;;;;;5012133;28;20202;-86
2022/04/25 07:37:22;;;;;;;5.50;5.00;;;12.90;99.90;;;;;;5015527;28;20537;-86
2022/04/25 07:39:49;;;;;;;6.23;5.60;;;13.00;99.90;;;;;;5015194;28;20240;-86
2022/04/25 07:42:18;;;;;;;5.90;5.40;;;13.20;99.90;;;;;;5032162;28;20181;-86
2022/04/25 07:44:46;;;;;;;5.80;5.20;;;13.20;99.90;;;;;;5015480;28;20209;-86
2022/04/25 07:47:13;;;;;;;6.80;6.10;;;13.10;99.90;;;;;;5015360;28;20184;-86
2022/04/25 07:49:56;;;;;;;5.67;5.07;;;13.10;99.90;;;;;;5031389;28;20212;-87
2022/04/25 07:52:22;;;;;;;6.80;5.80;;;13.20;99.90;;;;;;5015410;28;20178;-86
2022/04/25 07:54:48;;;;;;;6.90;6.20;;;13.30;99.90;;;;;;5015263;28;20628;-86
2022/04/25 07:57:14;;;;;;;6.83;5.37;;;13.30;99.90;;;;;;5015376;28;20166;-86
2022/04/25 07:59:39;;;;;;;6.50;5.90;;;13.40;99.90;;;;;;5015199;28;20178;-86
2022/04/25 08:02:05;;;;;;;6.83;6.17;;;13.50;99.90;;;;;;5015383;28;20198;-86
2022/04/25 08:04:31;;;;;;;5.90;5.33;;;13.60;99.90;;;;;;5015229;28;20245;-86
2022/04/25 08:06:57;;;;;;;6.40;5.53;;;13.40;99.90;;;;;;5005323;28;20187;-86
2022/04/25 08:09:27;;;;;;;7.60;5.77;;;13.50;99.90;;;;;;4979287;28;20183;-87
2022/04/25 08:20:17;;;;;;;6.90;6.20;;;14.40;99.90;;;;;;5034319;28;20201;-87
2022/04/25 08:22:52;;;;;;;6.50;5.90;;;14.60;99.90;;;;;;5015442;28;20696;-86
2022/04/25 08:25:52;;;;;;;7.03;5.93;;;14.60;99.90;;;;;;5005844;28;20217;-87
2022/04/25 08:28:20;;;;;;;5.77;5.27;;;14.60;99.90;;;;;;5011874;28;20163;-86
2022/04/25 08:30:51;;;;;;;5.27;4.77;;;14.60;99.90;;;;;;5029644;28;20174;-86
2022/04/25 08:33:19;;;;;;;6.47;5.87;;;14.60;99.90;;;;;;5018147;28;20197;-86
2022/04/25 08:35:45;;;;;;;6.37;5.77;;;14.50;99.90;;;;;;5017208;28;20205;-86
2022/04/25 08:38:11;;;;;;;6.37;5.77;;;14.60;99.90;;;;;;4997428;28;20190;-86
2022/04/25 08:40:39;;;;;;;6.60;5.90;;;14.70;99.90;;;;;;4997861;28;20179;-86
2022/04/25 08:43:06;;;;;;;7.70;6.93;;;14.60;99.90;;;;;;5032452;28;20264;-87
2022/04/25 08:45:37;;;;;;;9.63;8.63;;;14.50;99.90;;;;;;4997946;28;20290;-86
2022/04/25 08:48:03;;;;;;;8.33;7.53;;;14.50;99.90;;;;;;4998082;28;20273;-86
2022/04/25 08:50:30;;;;;;;9.33;8.43;;;14.70;99.90;;;;;;4998203;28;20178;-86
2022/04/25 08:52:57;;;;;;;9.20;8.17;;;14.80;99.90;;;;;;4998389;28;20189;-86
2022/04/25 08:55:23;;;;;;;9.50;8.57;;;14.90;99.90;;;;;;4998165;28;20202;-86
2022/04/25 08:57:51;;;;;;;8.67;7.87;;;14.90;99.90;;;;;;5014417;28;20183;-86
2022/04/25 09:00:18;;;;;;;9.03;8.13;;;14.80;99.90;;;;;;4996814;28;20183;-86
2022/04/25 09:02:49;;;;;;;8.53;7.73;;;14.70;99.90;;;;;;4998432;28;20573;-87
2022/04/25 09:05:15;;;;;;;9.53;8.60;;;14.50;99.90;;;;;;4998004;28;20198;-86
2022/04/25 09:07:42;;;;;;;9.13;8.23;;;14.20;99.90;;;;;;4998259;28;20183;-86
2022/04/25 09:10:10;;;;;;;8.77;7.97;;;14.10;99.90;;;;;;4998952;28;20181;-86
2022/04/25 09:12:37;;;;;;;10.17;9.13;;;14.20;99.90;;;;;;5002177;28;20189;-87
2022/04/25 09:15:08;;;;;;;10.60;9.60;;;14.50;99.90;;;;;;5001931;28;20210;-86
2022/04/25 09:17:38;;;;;;;9.63;8.70;;;14.70;99.90;;;;;;5001903;28;20213;-87
2022/04/25 09:20:06;;;;;;;9.87;8.90;;;15.00;99.90;;;;;;5018212;28;20178;-86
2022/04/25 09:22:36;;;;;;;10.50;9.40;;;15.40;99.90;;;;;;5001848;28;20197;-86
2022/04/25 09:25:10;;;;;;;10.03;9.03;;;15.70;99.90;;;;;;5001807;28;20218;-86
2022/04/25 09:27:38;;;;;;;9.60;8.30;;;15.90;99.90;;;;;;5001637;28;20246;-86
2022/04/25 09:30:21;;;;;;;10.63;9.40;;;15.90;99.90;;;;;;5001775;28;20185;-87
2022/04/25 09:32:51;;;;;;;10.70;9.70;;;15.90;99.90;;;;;;5017774;28;20221;-87
2022/04/25 09:35:33;;;;;;;10.60;9.20;;;16.00;99.90;;;;;;5001415;28;20281;-87
2022/04/25 09:38:03;;;;;;;10.40;9.33;;;16.10;99.90;;;;;;5017526;28;20187;-86
2022/04/25 09:40:32;;;;;;;9.83;8.87;;;15.40;99.90;;;;;;5017824;28;20167;-86
2022/04/25 09:43:12;;;;;;;9.57;8.50;;;15.20;99.90;;;;;;5017365;28;20206;-87
2022/04/25 09:45:46;;;;;;;10.43;9.43;;;15.20;99.90;;;;;;5017466;28;20202;-86
2022/04/25 09:48:15;;;;;;;9.30;8.50;;;15.10;99.90;;;;;;5017923;28;20172;-86
2022/04/25 09:50:43;;;;;;;9.27;8.47;;;15.10;99.90;;;;;;5017264;28;20175;-86
2022/04/25 09:53:10;;;;;;;9.30;8.40;;;15.10;99.90;;;;;;5017831;28;20179;-87
2022/04/25 09:55:39;;;;;;;8.43;7.63;;;14.80;99.90;;;;;;5017036;28;20291;-88
2022/04/25 09:58:22;;;;;;;7.93;7.23;;;14.90;99.90;;;;;;5009874;28;20205;-87
2022/04/25 10:01:18;;;;;;;9.57;8.20;;;14.90;99.90;;;;;;5026416;28;20190;-87
2022/04/25 10:03:58;;;;;;;8.57;7.73;;;14.90;99.90;;;;;;4988427;28;20206;-87
2022/04/25 10:06:26;;;;;;;8.03;7.20;;;14.90;99.90;;;;;;5015021;28;20197;-87
2022/04/25 10:08:54;;;;;;;8.17;7.37;;;14.80;99.90;;;;;;4997682;28;20249;-88
2022/04/25 10:11:24;;;;;;;8.73;7.93;;;14.80;99.90;;;;;;5013963;28;20189;-87
2022/04/25 10:14:01;;;;;;;9.80;8.90;;;14.90;99.90;;;;;;5012588;28;20193;-87
2022/04/25 10:16:41;;;;;;;10.03;9.03;;;14.80;99.90;;;;;;5015329;28;20174;-87
2022/04/25 10:19:09;;;;;;;10.50;9.40;;;14.80;99.90;;;;;;5020859;28;20193;-87
2022/04/25 10:21:49;;;;;;;10.30;9.17;;;14.70;99.90;;;;;;5033306;28;20171;-87
2022/04/25 10:24:20;;;;;;;10.80;9.70;;;14.20;99.90;;;;;;5014786;28;20209;-87
2022/04/25 10:26:49;;;;;;;11.67;9.53;;;14.20;99.90;;;;;;5037631;28;20181;-87
2022/04/25 10:29:31;;;;;;;9.13;8.23;;;14.10;99.90;;;;;;5034839;28;20190;-87
2022/04/25 10:32:01;;;;;;;10.27;9.27;;;14.30;99.90;;;;;;5005191;28;20174;-87
2022/04/25 10:34:46;;;;;;;10.33;9.40;;;14.30;99.90;;;;;;5019037;28;20202;-87
2022/04/25 10:37:35;;;;;;;10.40;9.30;;;14.30;99.90;;;;;;5008110;28;20190;-87
2022/04/25 10:40:09;;;;;;;9.73;8.83;;;14.20;99.90;;;;;;5000071;28;20182;-87
2022/04/25 10:46:51;;;;;;;10.77;9.77;;;14.10;99.90;;;;;;5016073;28;20182;-87
2022/04/25 10:49:30;;;;;;;13.13;11.93;;;13.80;99.90;;;;;;5016689;28;20229;-87
2022/04/25 10:52:42;;;;;;;13.03;11.73;;;13.50;99.90;;;;;;5003335;28;20258;-87
2022/04/25 10:55:43;;;;;;;14.67;13.17;;;13.30;99.90;;;;;;4991074;28;20210;-88
2022/04/25 10:58:12;;;;;;;13.73;12.43;;;13.00;99.90;;;;;;5053987;28;20248;-87
2022/04/25 11:00:41;;;;;;;13.87;12.40;;;12.60;99.90;;;;;;5020191;28;20216;-87
2022/04/25 11:03:12;;;;;;;11.40;10.30;;;12.50;99.90;;;;;;5019846;28;20665;-87
2022/04/25 11:05:40;;;;;;;13.93;10.30;;;12.40;99.90;;;;;;5020121;28;20661;-87
2022/04/25 11:08:24;;;;;;;12.43;11.03;;;12.00;99.90;;;;;;5000696;28;20197;-87
2022/04/25 11:11:05;;;;;;;12.90;10.73;;;11.90;99.90;;;;;;5015945;28;20181;-87
2022/04/25 11:13:49;;;;;;;12.33;11.13;;;11.80;99.90;;;;;;5000242;28;20198;-87
2022/04/25 11:16:24;;;;;;;11.37;10.23;;;11.80;99.90;;;;;;4999617;28;20239;-87
2022/04/25 11:19:11;;;;;;;11.77;10.60;;;11.80;99.90;;;;;;4999009;28;20207;-87
2022/04/25 11:22:03;;;;;;;14.40;10.00;;;11.80;99.90;;;;;;4999781;28;20272;-86
2022/04/25 11:24:35;;;;;;;11.17;10.07;;;11.70;99.90;;;;;;4995548;28;20221;-87
2022/04/25 11:27:03;;;;;;;10.77;9.60;;;11.60;99.90;;;;;;4999374;28;20206;-87
2022/04/25 11:29:29;;;;;;;13.00;10.27;;;11.40;99.90;;;;;;5015509;28;20181;-87
2022/04/25 11:32:25;;;;;;;11.20;10.00;;;11.30;99.90;;;;;;5032589;28;20195;-87
2022/04/25 11:34:52;;;;;;;12.00;10.67;;;11.30;99.90;;;;;;5018909;28;20199;-87
2022/04/25 11:37:19;;;;;;;11.10;9.90;;;11.30;99.90;;;;;;5006199;28;20187;-87
2022/04/25 11:39:58;;;;;;;13.60;12.13;;;11.40;99.90;;;;;;5015396;28;20181;-87
2022/04/25 11:42:32;;;;;;;16.10;13.10;;;11.50;99.90;;;;;;4999816;28;20179;-89
2022/04/25 11:44:58;;;;;;;12.00;10.63;;;11.50;99.90;;;;;;4998651;28;20322;-87
2022/04/25 11:47:24;;;;;;;10.53;9.57;;;11.60;99.90;;;;;;4999016;28;20183;-87
2022/04/25 11:49:59;;;;;;;11.40;10.20;;;11.60;99.90;;;;;;5031509;28;20238;-87
2022/04/25 11:52:43;;;;;;;13.57;11.43;;;11.60;99.90;;;;;;4998382;28;20186;-87
2022/04/25 11:55:09;;;;;;;10.47;9.47;;;11.60;99.90;;;;;;4998649;28;20559;-87
2022/04/25 11:57:39;;;;;;;9.77;8.80;;;11.70;99.90;;;;;;5015403;28;20174;-87
2022/04/25 12:00:11;;;;;;;11.47;8.10;;;11.70;99.90;;;;;;5014410;28;20180;-87
2022/04/25 12:02:40;;;;;;;9.93;8.77;;;11.80;99.90;;;;;;5015049;28;20172;-87
2022/04/25 12:05:07;;;;;;;8.30;7.37;;;11.80;99.90;;;;;;5015171;28;20243;-87
2022/04/25 12:07:37;;;;;;;6.60;6.00;;;11.80;99.90;;;;;;5015296;28;20179;-87
2022/04/25 12:15:40;;;;;;;9.73;8.57;;;12.10;99.90;;;;;;5054242;28;20203;-86
2022/04/25 12:18:18;;;;;;;10.03;9.03;;;12.20;99.90;;;;;;5015297;28;20581;-87
2022/04/25 12:20:50;;;;;;;10.77;9.47;;;12.30;99.90;;;;;;5015009;28;20189;-87
2022/04/25 12:23:29;;;;;;;8.77;7.90;;;12.30;99.90;;;;;;5015261;28;20214;-87
2022/04/25 12:25:56;;;;;;;9.23;8.40;;;12.30;99.90;;;;;;5015172;28;20170;-87
2022/04/25 12:28:28;;;;;;;10.17;9.20;;;12.40;99.90;;;;;;5015058;28;20182;-88
2022/04/25 12:30:54;;;;;;;10.40;9.30;;;12.40;99.90;;;;;;5014790;28;20182;-87
2022/04/25 12:33:30;;;;;;;9.60;8.60;;;12.40;99.90;;;;;;4998772;28;20276;-88
2022/04/25 12:36:08;;;;;;;9.93;8.93;;;12.50;99.90;;;;;;5013041;28;20211;-88
2022/04/25 12:38:36;;;;;;;9.53;8.53;;;12.70;99.90;;;;;;4995686;28;20273;-89
2022/04/25 12:41:03;;;;;;;10.63;8.63;;;12.80;99.90;;;;;;4981704;28;20209;-82
2022/04/25 12:43:42;;;;;;;7.10;6.37;;;12.90;99.90;;;;;;5001459;28;20210;-75
2022/04/25 12:46:09;;;;;;;5.47;4.97;;;12.90;99.90;;;;;;5002664;28;20178;-76
2022/04/25 12:48:59;;;;;;;5.30;4.80;;;12.90;99.90;;;;;;5001237;28;20175;-76
2022/04/25 12:51:51;;;;;;;6.90;6.20;;;13.00;99.90;;;;;;5016610;28;20202;-74
2022/04/25 12:54:19;;;;;;;6.87;5.63;;;13.10;99.90;;;;;;4982884;28;20220;-73
2022/04/25 12:56:49;;;;;;;8.83;6.63;;;13.30;99.90;;;;;;4994518;28;20186;-87
2022/04/25 12:59:29;;;;;;;6.17;5.60;;;13.50;99.90;;;;;;4998600;28;21318;-89
2022/04/25 13:02:01;;;;;;;5.93;5.43;;;13.70;99.90;;;;;;5002217;28;20705;-88
2022/04/25 13:04:54;;;;;;;4.90;4.50;;;13.90;99.90;;;;;;5004108;28;20214;-83
2022/04/25 13:07:28;;;;;;;5.80;5.20;;;14.10;99.90;;;;;;5011692;28;20198;-87
2022/04/25 13:10:04;;;;;;;6.17;5.67;;;14.40;99.90;;;;;;5005019;28;20174;-88
2022/04/25 13:12:34;;;;;;;6.07;5.47;;;14.50;99.90;;;;;;5017900;28;20174;-88
2022/04/25 13:15:02;;;;;;;6.03;5.53;;;14.50;99.90;;;;;;5000092;28;20214;-88
2022/04/25 13:17:30;;;;;;;7.87;5.40;;;14.70;99.90;;;;;;5017662;28;20272;-88
2022/04/25 13:20:01;;;;;;;5.40;4.90;;;14.80;99.90;;;;;;5001606;28;20171;-87
2022/04/25 13:22:38;;;;;;;5.00;4.60;;;15.00;99.90;;;;;;5012994;28;20180;-88
2022/04/25 13:25:08;;;;;;;6.23;4.60;;;15.20;99.90;;;;;;5001758;28;20214;-88
2022/04/25 13:27:34;;;;;;;5.23;4.60;;;15.20;99.90;;;;;;5020440;28;20174;-88
2022/04/25 13:30:05;;;;;;;4.53;4.10;;;15.40;99.90;;;;;;5037413;28;20174;-87
2022/04/25 13:32:32;;;;;;;5.70;5.10;;;15.60;99.90;;;;;;5017635;28;20252;-87
2022/04/25 13:35:00;;;;;;;5.33;4.93;;;16.00;99.90;;;;;;5002229;28;20191;-88
2022/04/25 13:37:29;;;;;;;4.50;4.10;;;16.30;99.90;;;;;;5011359;28;20231;-88
2022/04/25 13:40:20;;;;;;;3.87;3.57;;;16.10;99.90;;;;;;5042627;28;20193;-88
2022/04/25 13:42:52;;;;;;;4.53;4.00;;;16.40;99.90;;;;;;5018125;28;20182;-88